Time;durP1;ratioP1;P1;durP2;ratioP2;P2;SDS_P1;SDS_P2;PMS_P1;PMS_P2;Temp;Humidity;BMP_temperature;BMP_pressure;BME280_temperature;BME280_humidity;BME280_pressure;Samples;Min_cycle;Max_cycle;Signal;HPM_P1;HPM_P2
2023/07/07 00:01:11;;;;;;;27.90;11.00;;;14.40;91.20;;;;;;5121828;27;20475;-61
2023/07/07 00:03:38;;;;;;;53.40;13.40;;;14.40;90.80;;;;;;5122365;27;20474;-61
2023/07/07 00:06:05;;;;;;;34.67;12.30;;;;;;;;;;5126786;27;20479;-61
2023/07/07 00:08:33;;;;;;;46.40;12.10;;;;;;;;;;5121121;27;20471;-61
2023/07/07 00:11:00;;;;;;;31.97;11.83;;;14.20;90.90;;;;;;5122378;27;20486;-61
2023/07/07 00:13:27;;;;;;;35.43;9.67;;;;;;;;;;5109695;27;20772;-61
2023/07/07 00:15:59;;;;;;;39.07;11.03;;;14.20;91.00;;;;;;5121510;27;20483;-61
2023/07/07 00:18:27;;;;;;;35.30;10.17;;;14.20;91.30;;;;;;5120585;27;20499;-61
2023/07/07 00:20:55;;;;;;;44.47;11.97;;;14.20;91.00;;;;;;5124424;27;20764;-61
2023/07/07 00:23:22;;;;;;;45.43;11.40;;;;;;;;;;5121396;27;21151;-61
2023/07/07 00:25:59;;;;;;;37.90;10.43;;;14.00;90.90;;;;;;5121297;27;20480;-61
2023/07/07 00:28:26;;;;;;;36.50;9.67;;;;;;;;;;5121901;27;20531;-61
2023/07/07 00:30:53;;;;;;;35.10;9.70;;;13.80;91.10;;;;;;5119189;27;20529;-61
2023/07/07 00:33:20;;;;;;;35.10;10.20;;;;;;;;;;5114453;27;20471;-61
2023/07/07 00:35:49;;;;;;;57.20;14.03;;;13.30;91.90;;;;;;5121858;27;20489;-61
2023/07/07 00:38:16;;;;;;;53.93;13.03;;;;;;;;;;5123797;27;20506;-61
2023/07/07 00:40:44;;;;;;;42.80;11.03;;;;;;;;;;5123517;27;20489;-61
2023/07/07 00:43:12;;;;;;;30.40;11.07;;;13.30;91.80;;;;;;5109980;27;20478;-61
2023/07/07 00:45:39;;;;;;;54.53;12.40;;;13.40;91.60;;;;;;5121273;27;20482;-61
2023/07/07 00:48:10;;;;;;;37.67;12.33;;;13.50;91.80;;;;;;5114025;27;20473;-62
2023/07/07 00:50:40;;;;;;;26.47;8.10;;;13.60;91.50;;;;;;5121122;27;20466;-61
2023/07/07 00:53:08;;;;;;;54.77;13.37;;;13.50;91.40;;;;;;5124132;27;20479;-61
2023/07/07 00:55:39;;;;;;;49.13;12.33;;;13.50;91.60;;;;;;5128822;27;20781;-61
2023/07/07 00:58:08;;;;;;;34.43;12.13;;;13.40;91.70;;;;;;5116169;27;20482;-61
2023/07/07 01:00:38;;;;;;;40.23;10.17;;;13.40;91.70;;;;;;5124450;27;21000;-61
2023/07/07 01:03:12;;;;;;;40.20;14.93;;;13.30;91.40;;;;;;5128207;27;20487;-61
2023/07/07 01:05:40;;;;;;;42.27;11.20;;;13.30;91.70;;;;;;5125503;27;20618;-61
2023/07/07 01:08:09;;;;;;;43.87;12.13;;;13.30;91.50;;;;;;5126710;27;20482;-61
2023/07/07 01:10:36;;;;;;;55.47;12.80;;;;;;;;;;5128185;27;20487;-61
2023/07/07 01:13:05;;;;;;;38.33;13.27;;;13.20;92.00;;;;;;5124584;27;20472;-61
2023/07/07 01:15:36;;;;;;;49.33;11.83;;;13.20;91.50;;;;;;5127180;27;20470;-61
2023/07/07 01:18:19;;;;;;;35.57;10.47;;;13.20;91.90;;;;;;5125466;27;20475;-61
2023/07/07 01:21:00;;;;;;;43.00;10.57;;;12.90;91.90;;;;;;5124274;27;20475;-61
2023/07/07 01:24:02;;;;;;;31.10;9.10;;;12.90;91.90;;;;;;5117093;27;20513;-61
2023/07/07 01:26:51;;;;;;;44.83;10.97;;;12.90;91.60;;;;;;5116076;27;20521;-61
2023/07/07 01:29:41;;;;;;;49.10;11.80;;;12.90;92.00;;;;;;5123472;27;21526;-61
2023/07/07 01:32:14;;;;;;;35.97;12.07;;;12.80;91.90;;;;;;5122202;27;20916;-61
2023/07/07 01:34:41;;;;;;;60.77;14.73;;;;;;;;;;5107376;27;20540;-61
2023/07/07 01:37:08;;;;;;;45.73;14.60;;;;;;;;;;5097918;27;21017;-61
2023/07/07 01:39:36;;;;;;;46.93;11.83;;;12.70;91.70;;;;;;5127694;27;20514;-61
2023/07/07 01:42:11;;;;;;;36.93;12.70;;;12.70;91.90;;;;;;5108825;27;20473;-61
2023/07/07 01:44:46;;;;;;;21.77;7.60;;;12.60;92.00;;;;;;5128196;27;20477;-61
2023/07/07 01:47:17;;;;;;;54.00;12.60;;;12.50;92.10;;;;;;5109895;27;20806;-61
2023/07/07 01:49:51;;;;;;;55.20;13.10;;;12.50;92.00;;;;;;5091725;27;20466;-61
2023/07/07 01:52:21;;;;;;;32.07;8.90;;;12.40;92.00;;;;;;5110459;27;20570;-61
2023/07/07 01:54:55;;;;;;;42.63;10.93;;;12.50;92.10;;;;;;5065112;27;21380;-61
2023/07/07 01:57:25;;;;;;;31.23;9.33;;;12.40;92.20;;;;;;5104273;27;20581;-61
2023/07/07 01:59:52;;;;;;;42.57;10.40;;;14.00;93.60;;;;;;5104127;27;20476;-61
2023/07/07 02:02:21;;;;;;;40.17;9.80;;;12.00;93.40;;;;;;5115740;27;20467;-61
2023/07/07 02:04:48;;;;;;;30.50;8.50;;;;;;;;;;5088809;27;20482;-61
2023/07/07 02:07:15;;;;;;;41.07;10.67;;;;;;;;;;5114767;27;20936;-61
2023/07/07 02:09:42;;;;;;;28.60;8.83;;;;;;;;;;5113601;27;20846;-61
2023/07/07 02:12:10;;;;;;;30.90;10.80;;;;;;;;;;5115517;27;20472;-63
2023/07/07 02:14:37;;;;;;;35.23;9.83;;;;;;;;;;5115820;27;20517;-61
2023/07/07 02:17:04;;;;;;;22.00;10.57;;;;;;;;;;5113008;27;20483;-61
2023/07/07 02:19:32;;;;;;;46.33;11.83;;;12.10;93.10;;;;;;5114112;27;20485;-61
2023/07/07 02:21:59;;;;;;;46.00;12.80;;;;;;;;;;5091081;27;20474;-62
2023/07/07 02:24:26;;;;;;;29.80;8.90;;;;;;;;;;5115119;27;20484;-62
2023/07/07 02:26:53;;;;;;;42.50;11.37;;;11.70;93.50;;;;;;5114440;27;20472;-61
2023/07/07 02:29:20;;;;;;;43.73;11.20;;;;;;;;;;5114467;27;20615;-61
2023/07/07 02:31:47;;;;;;;43.33;10.87;;;;;;;;;;5115187;27;20964;-61
2023/07/07 02:34:14;;;;;;;42.60;10.23;;;;;;;;;;5116069;27;20466;-61
2023/07/07 02:36:43;;;;;;;50.63;12.40;;;11.90;92.90;;;;;;5116491;27;21038;-61
2023/07/07 02:39:10;;;;;;;42.53;13.10;;;;;;;;;;5115579;27;20476;-61
2023/07/07 02:41:37;;;;;;;38.57;9.10;;;;;;;;;;5115649;27;21083;-61
2023/07/07 02:44:04;;;;;;;21.50;8.50;;;;;;;;;;5114254;27;20470;-61
2023/07/07 02:46:31;;;;;;;40.63;9.10;;;;;;;;;;5116270;27;20474;-61
2023/07/07 02:48:58;;;;;;;35.50;10.97;;;;;;;;;;5116420;27;21032;-61
2023/07/07 02:51:25;;;;;;;29.60;8.67;;;;;;;;;;5115898;27;20482;-61
2023/07/07 02:53:53;;;;;;;36.13;8.80;;;11.90;93.00;;;;;;5116575;27;20484;-61
2023/07/07 02:56:20;;;;;;;41.17;10.33;;;;;;;;;;5087005;27;20916;-61
2023/07/07 02:58:48;;;;;;;31.53;8.60;;;;;;;;;;5116460;27;20470;-61
2023/07/07 03:01:17;;;;;;;32.50;9.20;;;11.70;92.80;;;;;;5115911;27;20485;-61
2023/07/07 03:03:45;;;;;;;32.83;9.20;;;11.70;92.90;;;;;;5114995;27;20679;-61
2023/07/07 03:06:16;;;;;;;66.80;15.00;;;11.70;92.80;;;;;;5084846;27;20487;-61
2023/07/07 03:08:44;;;;;;;25.30;7.93;;;;;;;;;;5115283;27;20476;-61
2023/07/07 03:11:14;;;;;;;35.20;11.77;;;11.50;93.20;;;;;;5113240;27;21024;-61
2023/07/07 03:13:41;;;;;;;39.53;10.70;;;11.50;93.10;;;;;;5112159;27;20569;-61
2023/07/07 03:16:10;;;;;;;45.80;12.90;;;11.40;92.90;;;;;;5084063;27;20672;-61
2023/07/07 03:18:37;;;;;;;29.50;8.23;;;;;;;;;;5116779;27;20490;-61
2023/07/07 03:21:04;;;;;;;32.07;11.27;;;;;;;;;;5112889;27;20478;-60
2023/07/07 03:23:31;;;;;;;40.50;10.10;;;;;;;;;;5115645;27;20751;-61
2023/07/07 03:26:06;;;;;;;33.97;10.67;;;11.30;92.90;;;;;;5116036;27;20493;-61
2023/07/07 03:28:34;;;;;;;31.93;8.47;;;11.30;93.10;;;;;;5116372;27;20485;-61
2023/07/07 03:31:08;;;;;;;48.57;13.93;;;11.30;92.90;;;;;;5114376;27;20489;-60
2023/07/07 03:33:35;;;;;;;33.37;9.47;;;11.40;93.00;;;;;;5115257;27;20485;-61
2023/07/07 03:36:02;;;;;;;42.43;13.17;;;;;;;;;;5114548;27;20487;-60
2023/07/07 03:38:29;;;;;;;41.13;10.37;;;;;;;;;;5100121;27;20890;-61
2023/07/07 03:40:57;;;;;;;27.97;9.23;;;;;;;;;;5099281;27;20473;-60
2023/07/07 03:43:24;;;;;;;25.37;8.80;;;;;;;;;;5107149;27;20496;-60
2023/07/07 03:45:52;;;;;;;32.77;9.77;;;11.20;93.20;;;;;;5116257;27;20829;-60
2023/07/07 03:48:19;;;;;;;31.57;11.13;;;;;;;;;;5114277;27;20490;-61
2023/07/07 03:50:55;;;;;;;21.90;9.07;;;11.10;93.60;;;;;;5112553;27;20484;-61
2023/07/07 03:53:22;;;;;;;20.40;7.80;;;;;;;;;;5115717;27;20781;-61
2023/07/07 03:55:49;;;;;;;38.80;10.27;;;11.10;93.30;;;;;;5114448;27;20480;-61
2023/07/07 03:58:16;;;;;;;29.83;10.97;;;11.10;93.60;;;;;;5114151;27;20479;-61
2023/07/07 04:00:43;;;;;;;22.13;9.57;;;11.10;93.60;;;;;;5115570;27;20488;-60
2023/07/07 04:03:11;;;;;;;28.00;11.10;;;11.00;93.60;;;;;;5114394;27;20469;-60
2023/07/07 04:05:41;;;;;;;24.63;10.03;;;10.90;93.60;;;;;;5114863;27;20839;-61
2023/07/07 04:08:08;;;;;;;22.20;9.67;;;10.90;94.20;;;;;;5112481;27;20740;-62
2023/07/07 04:10:34;;;;;;;20.40;8.53;;;8.00;93.50;;;;;;5115066;27;20810;-61
2023/07/07 04:13:01;;;;;;;27.13;11.13;;;10.90;94.50;;;;;;5114555;27;20986;-61
2023/07/07 04:15:28;;;;;;;18.63;8.23;;;11.00;94.40;;;;;;5115581;27;20465;-61
2023/07/07 04:17:55;;;;;;;20.77;7.93;;;;;;;;;;5115927;27;20472;-60
2023/07/07 04:20:24;;;;;;;22.20;8.30;;;11.10;95.00;;;;;;5114919;27;20915;-61
2023/07/07 04:22:50;;;;;;;21.23;9.40;;;11.20;95.00;;;;;;5115897;27;20802;-61
2023/07/07 04:25:18;;;;;;;18.13;7.73;;;11.20;94.80;;;;;;5114045;27;20477;-61
2023/07/07 04:27:46;;;;;;;19.93;9.23;;;11.30;94.50;;;;;;5116035;27;20480;-61
2023/07/07 04:30:13;;;;;;;35.13;13.03;;;11.30;94.20;;;;;;5116191;27;20853;-61
2023/07/07 04:32:41;;;;;;;26.63;9.33;;;11.40;94.20;;;;;;5101407;27;20968;-60
2023/07/07 04:35:09;;;;;;;17.60;8.70;;;11.40;94.50;;;;;;5117917;27;20485;-61
2023/07/07 04:37:37;;;;;;;22.70;9.70;;;11.50;94.60;;;;;;5118734;27;20492;-61
2023/07/07 04:40:05;;;;;;;26.77;9.67;;;11.50;94.80;;;;;;5117847;27;20534;-61
2023/07/07 04:42:32;;;;;;;19.70;8.40;;;11.60;95.30;;;;;;5118648;27;21046;-61
2023/07/07 04:44:59;;;;;;;15.83;7.97;;;11.80;95.80;;;;;;5118989;27;20842;-60
2023/07/07 04:47:25;;;;;;;12.63;7.57;;;11.90;95.80;;;;;;5119020;27;20954;-61
2023/07/07 04:49:52;;;;;;;17.97;11.47;;;12.10;96.00;;;;;;5117137;27;20477;-60
2023/07/07 04:52:19;;;;;;;17.77;9.80;;;12.20;95.70;;;;;;5117810;27;20480;-61
2023/07/07 04:54:49;;;;;;;16.83;8.43;;;12.30;95.70;;;;;;5119056;27;21052;-60
2023/07/07 04:57:16;;;;;;;14.43;9.60;;;12.50;95.80;;;;;;5116337;27;20504;-61
2023/07/07 04:59:43;;;;;;;23.37;12.00;;;;;;;;;;5118438;27;21277;-60
2023/07/07 05:02:10;;;;;;;15.33;10.10;;;12.70;96.20;;;;;;5117693;27;20484;-60
2023/07/07 05:04:36;;;;;;;14.97;9.20;;;12.80;96.30;;;;;;5118411;27;20475;-60
2023/07/07 05:07:04;;;;;;;13.37;8.50;;;;;;;;;;5117583;27;20478;-60
2023/07/07 05:09:31;;;;;;;18.93;11.67;;;12.90;97.10;;;;;;5116709;27;20492;-60
2023/07/07 05:11:59;;;;;;;17.33;10.70;;;13.00;97.40;;;;;;5117812;27;21113;-61
2023/07/07 05:14:26;;;;;;;14.10;8.40;;;13.10;97.30;;;;;;5118376;27;20478;-61
2023/07/07 05:16:53;;;;;;;16.23;9.63;;;13.20;97.40;;;;;;5113349;27;20476;-61
2023/07/07 05:19:20;;;;;;;18.40;11.07;;;13.30;98.10;;;;;;5116820;27;20483;-61
2023/07/07 05:21:47;;;;;;;18.90;11.90;;;13.40;98.50;;;;;;5117710;27;22000;-61
2023/07/07 05:24:14;;;;;;;17.33;11.30;;;13.60;98.70;;;;;;5117286;27;21091;-60
2023/07/07 05:26:40;;;;;;;20.37;12.30;;;13.70;98.70;;;;;;5101623;27;20491;-61
2023/07/07 05:29:09;;;;;;;19.73;11.70;;;13.80;98.60;;;;;;5101338;27;20485;-60
2023/07/07 05:31:37;;;;;;;16.10;11.37;;;13.90;98.50;;;;;;5112916;27;20481;-60
2023/07/07 05:34:04;;;;;;;15.63;10.23;;;14.00;98.60;;;;;;5117764;27;20466;-60
2023/07/07 05:36:30;;;;;;;19.10;9.60;;;14.20;98.40;;;;;;5118894;27;20920;-61
2023/07/07 05:38:57;;;;;;;13.00;10.23;;;14.30;98.50;;;;;;5087657;27;20474;-61
2023/07/07 05:41:24;;;;;;;22.13;11.70;;;14.40;98.20;;;;;;5116859;27;20508;-61
2023/07/07 05:43:51;;;;;;;12.93;9.07;;;14.50;98.00;;;;;;5114491;27;20478;-61
2023/07/07 05:46:20;;;;;;;16.07;9.80;;;14.60;98.30;;;;;;5117631;27;20480;-60
2023/07/07 05:48:46;;;;;;;13.00;9.63;;;14.70;98.30;;;;;;5117250;27;20496;-60
2023/07/07 05:51:15;;;;;;;24.83;12.33;;;14.80;98.20;;;;;;5116329;27;20487;-61
2023/07/07 05:53:43;;;;;;;14.10;10.27;;;14.90;98.50;;;;;;5126362;27;20490;-61
2023/07/07 05:56:13;;;;;;;13.43;9.70;;;15.00;98.00;;;;;;5121094;27;20892;-61
2023/07/07 05:58:40;;;;;;;23.83;10.20;;;15.20;97.90;;;;;;5119547;27;20491;-61
2023/07/07 06:01:09;;;;;;;18.60;10.80;;;15.20;97.80;;;;;;5116323;27;20474;-61
2023/07/07 06:03:40;;;;;;;17.97;10.30;;;15.40;97.90;;;;;;5117061;27;20474;-61
2023/07/07 06:06:06;;;;;;;16.07;9.83;;;15.60;97.80;;;;;;5117135;27;20479;-61
2023/07/07 06:08:33;;;;;;;15.43;10.67;;;15.70;97.40;;;;;;5116009;27;20472;-61
2023/07/07 06:11:00;;;;;;;12.77;8.53;;;15.80;97.60;;;;;;5115247;27;20834;-61
2023/07/07 06:13:28;;;;;;;12.63;7.90;;;16.00;97.50;;;;;;5116740;27;20486;-60
2023/07/07 06:15:55;;;;;;;12.80;8.83;;;16.10;97.20;;;;;;5113424;27;20562;-61
2023/07/07 06:18:23;;;;;;;12.30;8.03;;;16.20;97.10;;;;;;5116150;27;20486;-61
2023/07/07 06:20:52;;;;;;;17.90;9.17;;;16.40;96.90;;;;;;5115998;27;20484;-61
2023/07/07 06:23:20;;;;;;;13.93;8.73;;;16.50;96.80;;;;;;5112643;27;20463;-61
2023/07/07 06:25:47;;;;;;;13.93;8.90;;;16.70;96.70;;;;;;5117983;27;20871;-61
2023/07/07 06:28:15;;;;;;;10.40;8.00;;;16.90;96.80;;;;;;5116269;27;20484;-61
2023/07/07 06:30:42;;;;;;;15.40;11.07;;;17.00;96.20;;;;;;5114437;27;20491;-61
2023/07/07 06:33:09;;;;;;;17.83;11.27;;;17.10;96.00;;;;;;5116104;27;20585;-61
2023/07/07 06:35:36;;;;;;;9.73;8.13;;;17.30;95.80;;;;;;5114764;27;20502;-60
2023/07/07 06:38:04;;;;;;;11.60;6.90;;;17.40;95.40;;;;;;5115020;27;20484;-61
2023/07/07 06:40:31;;;;;;;12.27;9.33;;;17.70;95.50;;;;;;5112946;27;20980;-61
2023/07/07 06:42:58;;;;;;;12.80;9.77;;;17.80;95.30;;;;;;5115089;27;20825;-61
2023/07/07 06:45:25;;;;;;;10.57;7.60;;;18.10;95.00;;;;;;5116975;27;20796;-61
2023/07/07 06:47:52;;;;;;;9.40;7.20;;;;;;;;;;5113441;27;20492;-61
2023/07/07 06:50:25;;;;;;;15.00;8.73;;;18.50;93.90;;;;;;5113860;27;20465;-62
2023/07/07 06:52:52;;;;;;;17.20;7.67;;;18.60;93.90;;;;;;5113325;27;20476;-61
2023/07/07 06:55:21;;;;;;;8.87;7.00;;;18.90;94.00;;;;;;5116502;27;20845;-61
2023/07/07 06:57:47;;;;;;;11.47;8.33;;;19.20;94.40;;;;;;5115898;27;20480;-61
2023/07/07 07:00:15;;;;;;;12.23;9.00;;;19.30;94.00;;;;;;5114837;27;20468;-61
2023/07/07 07:02:42;;;;;;;11.30;7.60;;;19.70;93.20;;;;;;5116136;27;20476;-61
2023/07/07 07:05:09;;;;;;;9.27;7.80;;;19.90;93.10;;;;;;5114281;27;20478;-61
2023/07/07 07:07:36;;;;;;;13.90;7.23;;;20.20;92.90;;;;;;5115230;27;21304;-61
2023/07/07 07:10:05;;;;;;;16.00;8.17;;;20.50;92.70;;;;;;5095182;27;20482;-61
2023/07/07 07:12:34;;;;;;;11.70;7.63;;;20.80;92.50;;;;;;5100982;27;20480;-61
2023/07/07 07:15:00;;;;;;;8.00;6.00;;;21.10;92.30;;;;;;5113004;27;20488;-61
2023/07/07 07:17:28;;;;;;;13.03;7.20;;;21.50;90.90;;;;;;5097376;27;20874;-62
2023/07/07 07:19:54;;;;;;;9.73;6.40;;;21.80;91.40;;;;;;5115658;27;20464;-62
2023/07/07 07:22:21;;;;;;;10.57;7.57;;;22.10;90.40;;;;;;5114232;27;20480;-62
2023/07/07 07:24:48;;;;;;;8.50;6.00;;;22.50;90.10;;;;;;5116327;27;20491;-61
2023/07/07 07:27:15;;;;;;;10.33;7.13;;;22.80;90.00;;;;;;5112057;27;20470;-62
2023/07/07 07:29:45;;;;;;;18.00;8.03;;;23.00;89.30;;;;;;5113325;27;20479;-62
2023/07/07 07:32:12;;;;;;;14.47;7.87;;;23.30;88.40;;;;;;5110133;27;20564;-62
2023/07/07 07:34:39;;;;;;;7.23;6.13;;;23.50;87.20;;;;;;5116318;27;20483;-62
2023/07/07 07:37:07;;;;;;;9.10;6.83;;;23.70;86.50;;;;;;5114407;27;20991;-63
2023/07/07 07:39:35;;;;;;;9.03;6.30;;;24.00;86.50;;;;;;5115503;27;20486;-62
2023/07/07 07:42:03;;;;;;;11.37;6.93;;;24.40;86.50;;;;;;5112310;27;20471;-62
2023/07/07 07:44:30;;;;;;;9.70;6.83;;;24.60;84.20;;;;;;5115697;27;20461;-62
2023/07/07 07:46:59;;;;;;;12.83;6.10;;;24.90;82.90;;;;;;5114907;27;20483;-62
2023/07/07 07:49:28;;;;;;;8.90;5.80;;;25.10;81.60;;;;;;5100253;27;20500;-61
2023/07/07 07:51:55;;;;;;;13.33;5.93;;;25.30;80.30;;;;;;5103487;27;21145;-61
2023/07/07 07:54:24;;;;;;;7.20;6.10;;;25.50;79.20;;;;;;5112209;27;20851;-62
2023/07/07 07:56:51;;;;;;;7.27;5.60;;;25.60;78.10;;;;;;5115685;27;20489;-61
2023/07/07 07:59:18;;;;;;;5.40;4.90;;;25.90;79.60;;;;;;5115636;27;20469;-62
2023/07/07 08:01:45;;;;;;;7.67;6.63;;;26.10;78.80;;;;;;5116792;27;20477;-62
2023/07/07 08:04:13;;;;;;;9.77;7.50;;;26.30;77.90;;;;;;5113055;27;20494;-62
2023/07/07 08:06:41;;;;;;;10.67;5.10;;;26.50;75.00;;;;;;5120227;27;20491;-62
2023/07/07 08:09:08;;;;;;;8.03;5.23;;;26.70;74.20;;;;;;5088355;27;20484;-62
2023/07/07 08:11:58;;;;;;;7.03;5.30;;;26.90;74.20;;;;;;5118107;27;20476;-62
2023/07/07 08:14:30;;;;;;;7.40;4.83;;;27.00;71.90;;;;;;5119289;27;20443;-62
2023/07/07 08:16:59;;;;;;;7.43;4.90;;;27.10;70.70;;;;;;5118185;27;20958;-62
2023/07/07 08:19:27;;;;;;;12.40;6.63;;;27.30;71.30;;;;;;5110703;27;20456;-62
2023/07/07 08:21:54;;;;;;;7.63;5.70;;;27.40;72.20;;;;;;5114378;27;20479;-62
2023/07/07 08:24:20;;;;;;;7.27;6.40;;;27.70;69.70;;;;;;5124649;27;20937;-62
2023/07/07 08:26:49;;;;;;;12.03;6.50;;;27.90;67.40;;;;;;5128456;27;20643;-62
2023/07/07 08:29:16;;;;;;;7.47;6.23;;;28.10;67.40;;;;;;5125836;27;20464;-62
2023/07/07 08:31:43;;;;;;;11.63;7.10;;;28.20;66.50;;;;;;5128614;27;20478;-62
2023/07/07 08:34:10;;;;;;;11.00;5.03;;;28.30;64.50;;;;;;5128888;27;20478;-63
2023/07/07 08:36:38;;;;;;;8.10;6.57;;;28.50;65.30;;;;;;5129897;27;21540;-63
2023/07/07 08:39:14;;;;;;;7.73;6.77;;;28.50;60.70;;;;;;5100465;27;20466;-62
2023/07/07 08:41:47;;;;;;;12.73;6.80;;;28.60;62.50;;;;;;5098918;27;20437;-63
2023/07/07 08:44:17;;;;;;;9.67;6.80;;;28.70;62.60;;;;;;5115273;27;20455;-64
2023/07/07 08:47:03;;;;;;;14.50;5.67;;;28.70;61.90;;;;;;5115091;27;20592;-63
2023/07/07 08:49:35;;;;;;;9.37;6.47;;;28.70;59.90;;;;;;5128880;27;20485;-62
2023/07/07 08:52:13;;;;;;;13.17;5.53;;;28.70;59.30;;;;;;5126981;27;20540;-62
2023/07/07 08:54:47;;;;;;;8.27;6.20;;;28.80;62.70;;;;;;5128592;27;20472;-63
2023/07/07 08:57:17;;;;;;;12.93;7.20;;;28.90;58.20;;;;;;5101404;27;21479;-63
2023/07/07 08:59:53;;;;;;;9.27;6.20;;;28.80;57.70;;;;;;5094709;27;20494;-62
2023/07/07 09:02:45;;;;;;;14.47;8.50;;;28.90;57.70;;;;;;5119523;27;20506;-62
2023/07/07 09:05:22;;;;;;;7.17;6.00;;;29.00;59.20;;;;;;5101262;27;20777;-62
2023/07/07 09:08:04;;;;;;;9.33;4.93;;;29.30;57.80;;;;;;5127131;27;20482;-62
2023/07/07 09:10:38;;;;;;;7.47;6.20;;;29.50;59.10;;;;;;5128824;27;20656;-62
2023/07/07 09:13:13;;;;;;;10.80;5.00;;;29.70;58.90;;;;;;5125968;27;20477;-63
2023/07/07 09:15:43;;;;;;;7.17;6.47;;;29.90;58.40;;;;;;5127151;27;20485;-63
2023/07/07 09:18:19;;;;;;;18.53;5.20;;;30.10;57.90;;;;;;5127382;27;20448;-63
2023/07/07 09:20:53;;;;;;;8.13;7.13;;;30.20;58.20;;;;;;5116090;27;20453;-63
2023/07/07 09:23:26;;;;;;;7.73;6.53;;;30.40;57.20;;;;;;5115619;27;20982;-63
2023/07/07 09:25:58;;;;;;;6.90;6.20;;;30.50;58.00;;;;;;5129898;27;20487;-64
2023/07/07 09:28:30;;;;;;;7.37;6.57;;;30.50;54.60;;;;;;5125427;27;20471;-63
2023/07/07 09:30:59;;;;;;;6.77;6.03;;;30.60;57.10;;;;;;5126825;27;20482;-63
2023/07/07 09:33:27;;;;;;;9.33;7.30;;;30.70;57.60;;;;;;5121417;27;20450;-63
2023/07/07 09:36:02;;;;;;;7.33;6.60;;;30.80;58.10;;;;;;5121482;27;20477;-63
2023/07/07 09:38:43;;;;;;;9.77;6.57;;;30.80;56.30;;;;;;5100721;27;20914;-63
2023/07/07 09:41:18;;;;;;;16.33;5.47;;;31.00;55.50;;;;;;5122417;27;20478;-64
2023/07/07 09:43:56;;;;;;;9.60;6.90;;;30.60;53.10;;;;;;5125724;27;20996;-63
2023/07/07 09:46:31;;;;;;;7.73;6.67;;;30.50;55.10;;;;;;5127739;27;20984;-63
2023/07/07 09:49:06;;;;;;;7.50;6.67;;;30.80;58.40;;;;;;5125024;27;20849;-63
2023/07/07 09:51:43;;;;;;;8.37;6.50;;;31.00;56.80;;;;;;5122651;27;20482;-63
2023/07/07 09:54:14;;;;;;;8.17;5.60;;;31.00;57.20;;;;;;5126322;27;20449;-63
2023/07/07 09:56:58;;;;;;;7.43;6.63;;;31.20;57.00;;;;;;5123303;27;21143;-63
2023/07/07 09:59:28;;;;;;;7.23;5.17;;;31.40;57.80;;;;;;5125183;27;20914;-63
2023/07/07 10:01:56;;;;;;;12.73;6.67;;;32.80;57.20;;;;;;5124421;27;21050;-63
2023/07/07 10:04:25;;;;;;;13.77;7.27;;;31.50;53.30;;;;;;5122650;27;20485;-63
2023/07/07 10:06:57;;;;;;;9.37;7.80;;;31.40;53.90;;;;;;5126938;27;20483;-63
2023/07/07 10:09:27;;;;;;;9.50;7.90;;;31.20;56.30;;;;;;5127867;27;20862;-63
2023/07/07 10:11:55;;;;;;;7.00;4.97;;;31.30;58.30;;;;;;5122200;27;20456;-63
2023/07/07 10:14:22;;;;;;;7.20;5.50;;;31.40;55.20;;;;;;5128313;27;20822;-64
2023/07/07 10:16:59;;;;;;;8.37;6.53;;;31.00;54.30;;;;;;5124034;27;20501;-63
2023/07/07 10:19:25;;;;;;;10.27;6.83;;;31.20;56.10;;;;;;5113736;27;21103;-64
2023/07/07 10:21:53;;;;;;;9.50;6.77;;;31.30;55.30;;;;;;5125263;27;21177;-63
2023/07/07 10:24:20;;;;;;;17.50;6.43;;;31.40;56.80;;;;;;5124640;27;20492;-64
2023/07/07 10:26:48;;;;;;;8.27;7.23;;;31.30;54.70;;;;;;5124018;27;21212;-64
2023/07/07 10:29:22;;;;;;;8.83;7.90;;;31.10;55.50;;;;;;5124139;27;20460;-64
2023/07/07 10:31:50;;;;;;;14.23;6.47;;;31.30;57.50;;;;;;5121832;27;20475;-63
2023/07/07 10:34:26;;;;;;;12.30;8.63;;;31.30;56.00;;;;;;5126417;27;20482;-64
2023/07/07 10:36:55;;;;;;;17.90;8.13;;;31.30;55.80;;;;;;5113616;27;20511;-63
2023/07/07 10:39:24;;;;;;;9.13;7.90;;;31.50;55.30;;;;;;5125380;27;20780;-62
2023/07/07 10:41:52;;;;;;;9.73;8.80;;;31.60;57.00;;;;;;5112770;27;20515;-63
2023/07/07 10:44:19;;;;;;;11.90;7.43;;;31.00;54.80;;;;;;5126488;27;20927;-63
2023/07/07 10:46:46;;;;;;;24.43;10.73;;;31.10;56.70;;;;;;5123726;27;21001;-64
2023/07/07 10:49:18;;;;;;;10.70;7.67;;;31.10;56.90;;;;;;5114762;27;20473;-64
2023/07/07 10:51:54;;;;;;;14.43;7.40;;;31.30;56.30;;;;;;5121731;27;20486;-64
2023/07/07 10:54:31;;;;;;;21.03;9.43;;;31.10;54.90;;;;;;5096895;27;20598;-64
2023/07/07 10:57:07;;;;;;;12.90;6.40;;;31.60;56.90;;;;;;5125251;27;20441;-63
2023/07/07 10:59:51;;;;;;;12.87;6.80;;;31.80;56.60;;;;;;5126045;27;20825;-64
2023/07/07 11:02:46;;;;;;;7.40;6.40;;;31.90;57.00;;;;;;5122387;27;20967;-64
2023/07/07 11:05:34;;;;;;;22.90;7.97;;;31.80;53.90;;;;;;5126826;27;20439;-64
2023/07/07 11:08:13;;;;;;;10.70;7.83;;;31.70;54.60;;;;;;5110268;27;20467;-63
2023/07/07 11:11:14;;;;;;;20.10;6.30;;;32.00;55.50;;;;;;5070719;27;20696;-63
2023/07/07 11:14:00;;;;;;;14.43;6.87;;;32.20;57.40;;;;;;5121755;27;20482;-63
2023/07/07 11:16:34;;;;;;;7.17;5.60;;;32.30;56.80;;;;;;5111155;27;20474;-64
2023/07/07 11:19:25;;;;;;;12.30;6.30;;;32.50;56.40;;;;;;5125957;27;21262;-64
2023/07/07 11:22:01;;;;;;;12.87;6.00;;;32.80;57.40;;;;;;5078083;27;20465;-63
2023/07/07 11:24:33;;;;;;;7.00;5.33;;;32.60;53.70;;;;;;5115668;27;20463;-63
2023/07/07 11:27:26;;;;;;;7.97;6.40;;;32.80;56.20;;;;;;5126191;27;20480;-64
2023/07/07 11:30:04;;;;;;;11.83;7.10;;;32.90;57.40;;;;;;5121395;27;20457;-64
2023/07/07 11:32:39;;;;;;;25.27;7.50;;;33.20;55.60;;;;;;5123821;27;20475;-64
2023/07/07 11:35:31;;;;;;;6.73;5.60;;;33.40;54.30;;;;;;5121580;27;20482;-64
2023/07/07 11:38:25;;;;;;;14.70;6.57;;;33.60;54.20;;;;;;5124586;27;20459;-64
2023/07/07 11:40:59;;;;;;;12.70;7.97;;;33.20;52.40;;;;;;5095898;27;20471;-63
2023/07/07 11:43:45;;;;;;;8.77;7.47;;;33.10;52.10;;;;;;5118851;27;20445;-64
2023/07/07 11:46:25;;;;;;;6.57;5.50;;;33.30;56.00;;;;;;5126490;27;21127;-64
2023/07/07 11:49:02;;;;;;;14.37;6.33;;;33.40;53.70;;;;;;5121787;27;20729;-64
2023/07/07 11:51:41;;;;;;;17.83;6.40;;;33.50;54.90;;;;;;5111866;27;20723;-63
2023/07/07 11:54:28;;;;;;;8.33;6.33;;;33.70;55.50;;;;;;5118782;27;20598;-64
2023/07/07 11:57:15;;;;;;;7.97;6.90;;;33.30;51.70;;;;;;5105820;27;20783;-63
2023/07/07 11:59:59;;;;;;;10.93;8.77;;;32.60;52.40;;;;;;5122542;27;20624;-64
2023/07/07 12:02:33;;;;;;;8.57;6.90;;;32.60;52.00;;;;;;5113545;27;20983;-64
2023/07/07 12:05:02;;;;;;;10.57;8.50;;;32.10;51.50;;;;;;5118486;27;20843;-63
2023/07/07 12:07:36;;;;;;;8.23;6.70;;;32.10;51.70;;;;;;5119266;27;20850;-64
2023/07/07 12:10:14;;;;;;;9.57;6.77;;;32.10;52.50;;;;;;5119605;27;20468;-64
2023/07/07 12:12:43;;;;;;;7.03;6.43;;;32.00;52.20;;;;;;5121909;27;20475;-64
2023/07/07 12:15:15;;;;;;;11.70;6.90;;;32.00;51.50;;;;;;5116858;27;20458;-63
2023/07/07 12:17:51;;;;;;;8.13;6.70;;;32.30;53.90;;;;;;5123594;27;20460;-64
2023/07/07 12:20:22;;;;;;;9.87;7.10;;;32.40;51.00;;;;;;5118972;27;20487;-63
2023/07/07 12:22:50;;;;;;;10.93;7.50;;;;;;;;;;5124028;27;20476;-64
2023/07/07 12:25:23;;;;;;;7.70;6.53;;;32.30;50.90;;;;;;5119214;27;20548;-64
2023/07/07 12:27:52;;;;;;;10.70;6.97;;;32.20;50.70;;;;;;5097247;27;20821;-64
2023/07/07 12:30:22;;;;;;;16.50;6.77;;;32.40;51.10;;;;;;5120322;27;20488;-63
2023/07/07 12:32:51;;;;;;;7.33;5.63;;;32.70;50.90;;;;;;5123504;27;20479;-64
2023/07/07 12:35:26;;;;;;;9.50;6.73;;;32.60;49.40;;;;;;5119338;27;20476;-63
2023/07/07 12:37:56;;;;;;;8.57;6.83;;;32.60;49.80;;;;;;5094533;27;21564;-64
2023/07/07 12:40:24;;;;;;;8.73;5.63;;;32.50;49.30;;;;;;5119641;27;20849;-64
2023/07/07 12:42:59;;;;;;;7.03;6.33;;;32.80;52.10;;;;;;5123635;27;20843;-64
2023/07/07 12:45:30;;;;;;;7.37;6.13;;;32.80;50.00;;;;;;5123533;27;20471;-64
2023/07/07 12:48:01;;;;;;;8.20;6.40;;;;;;;;;;5114886;27;20506;-63
2023/07/07 12:50:30;;;;;;;10.07;6.67;;;33.40;52.40;;;;;;5125285;27;20470;-63
2023/07/07 12:53:03;;;;;;;7.97;6.20;;;33.40;50.50;;;;;;5126935;27;20509;-64
2023/07/07 12:55:31;;;;;;;10.03;5.17;;;33.40;52.40;;;;;;5100731;27;21030;-64
2023/07/07 12:58:15;;;;;;;11.60;7.20;;;33.40;52.30;;;;;;5114099;27;21133;-63
2023/07/07 13:00:44;;;;;;;9.63;5.90;;;33.50;51.70;;;;;;5126363;27;20453;-64
2023/07/07 13:03:20;;;;;;;7.00;5.93;;;33.70;52.50;;;;;;5125669;27;20486;-64
2023/07/07 13:05:49;;;;;;;7.80;5.47;;;33.80;50.50;;;;;;5127333;27;20465;-64
2023/07/07 13:08:34;;;;;;;13.47;6.87;;;33.80;50.40;;;;;;5126770;27;20687;-64